sensor_id;sensor_type;location;lat;lon;timestamp;temperature;humidity
40589;DHT22;26297;49.450;6.640;2023-07-13T01:17:56;22.00;99.90
40589;DHT22;26297;49.450;6.640;2023-07-13T01:52:15;21.80;99.90
40589;DHT22;26297;49.450;6.640;2023-07-13T01:55:25;21.90;99.90
40589;DHT22;26297;49.450;6.640;2023-07-13T01:58:49;21.90;99.90
40589;DHT22;26297;49.450;6.640;2023-07-13T02:02:10;21.90;99.90
40589;DHT22;26297;49.450;6.640;2023-07-13T02:05:31;21.90;99.90
40589;DHT22;26297;49.450;6.640;2023-07-13T02:09:01;21.90;99.90
40589;DHT22;26297;49.450;6.640;2023-07-13T02:12:40;21.90;99.90
40589;DHT22;26297;49.450;6.640;2023-07-13T02:15:54;21.90;99.90
40589;DHT22;26297;49.450;6.640;2023-07-13T02:19:14;21.90;99.90
40589;DHT22;26297;49.450;6.640;2023-07-13T02:30:17;21.80;99.90
40589;DHT22;26297;49.450;6.640;2023-07-13T02:34:03;21.80;99.90
40589;DHT22;26297;49.450;6.640;2023-07-13T02:37:24;21.80;99.90
40589;DHT22;26297;49.450;6.640;2023-07-13T02:48:35;21.80;99.90
40589;DHT22;26297;49.450;6.640;2023-07-13T02:51:58;21.80;99.90
40589;DHT22;26297;49.450;6.640;2023-07-13T02:55:18;21.80;99.90
40589;DHT22;26297;49.450;6.640;2023-07-13T02:58:37;21.80;99.90
40589;DHT22;26297;49.450;6.640;2023-07-13T03:01:43;21.70;99.90
40589;DHT22;26297;49.450;6.640;2023-07-13T03:04:55;21.70;99.90
40589;DHT22;26297;49.450;6.640;2023-07-13T03:08:09;21.80;99.90
40589;DHT22;26297;49.450;6.640;2023-07-13T03:11:43;21.80;99.90
40589;DHT22;26297;49.450;6.640;2023-07-13T03:15:21;21.80;99.90
40589;DHT22;26297;49.450;6.640;2023-07-13T03:18:55;21.80;99.90
40589;DHT22;26297;49.450;6.640;2023-07-13T03:22:13;21.80;99.90
40589;DHT22;26297;49.450;6.640;2023-07-13T03:25:35;21.80;99.90
40589;DHT22;26297;49.450;6.640;2023-07-13T03:28:49;21.70;99.90
40589;DHT22;26297;49.450;6.640;2023-07-13T03:32:10;21.80;99.90
40589;DHT22;26297;49.450;6.640;2023-07-13T03:35:16;21.70;99.90
40589;DHT22;26297;49.450;6.640;2023-07-13T03:38:29;21.70;99.90
40589;DHT22;26297;49.450;6.640;2023-07-13T03:42:03;21.70;99.90
40589;DHT22;26297;49.450;6.640;2023-07-13T03:45:34;21.70;99.90
40589;DHT22;26297;49.450;6.640;2023-07-13T03:48:43;21.70;99.90
40589;DHT22;26297;49.450;6.640;2023-07-13T03:52:12;21.70;99.90
40589;DHT22;26297;49.450;6.640;2023-07-13T03:55:40;21.70;99.90
40589;DHT22;26297;49.450;6.640;2023-07-13T03:58:57;21.70;99.90
40589;DHT22;26297;49.450;6.640;2023-07-13T04:02:36;21.70;99.90
40589;DHT22;26297;49.450;6.640;2023-07-13T04:13:28;21.70;99.90
40589;DHT22;26297;49.450;6.640;2023-07-13T04:16:47;21.70;99.90
40589;DHT22;26297;49.450;6.640;2023-07-13T04:20:17;21.70;99.90
40589;DHT22;26297;49.450;6.640;2023-07-13T04:23:48;21.70;99.90
40589;DHT22;26297;49.450;6.640;2023-07-13T04:27:06;21.70;99.90
40589;DHT22;26297;49.450;6.640;2023-07-13T04:30:25;21.70;99.90
40589;DHT22;26297;49.450;6.640;2023-07-13T04:37:31;21.70;99.90
40589;DHT22;26297;49.450;6.640;2023-07-13T04:41:31;21.70;99.90
40589;DHT22;26297;49.450;6.640;2023-07-13T04:44:39;21.70;99.90
40589;DHT22;26297;49.450;6.640;2023-07-13T04:47:54;21.70;99.90
40589;DHT22;26297;49.450;6.640;2023-07-13T04:51:04;21.70;99.90
40589;DHT22;26297;49.450;6.640;2023-07-13T04:57:48;21.70;99.90
40589;DHT22;26297;49.450;6.640;2023-07-13T05:05:30;21.60;99.90
40589;DHT22;26297;49.450;6.640;2023-07-13T05:11:26;21.60;99.90
40589;DHT22;26297;49.450;6.640;2023-07-13T05:14:29;21.60;99.90
40589;DHT22;26297;49.450;6.640;2023-07-13T05:17:32;21.60;99.90
40589;DHT22;26297;49.450;6.640;2023-07-13T05:20:35;21.70;99.90
40589;DHT22;26297;49.450;6.640;2023-07-13T05:23:39;21.70;99.90
40589;DHT22;26297;49.450;6.640;2023-07-13T05:26:44;21.70;99.90
40589;DHT22;26297;49.450;6.640;2023-07-13T05:29:48;21.70;99.90
40589;DHT22;26297;49.450;6.640;2023-07-13T05:32:51;21.70;99.90
40589;DHT22;26297;49.450;6.640;2023-07-13T05:35:54;21.70;99.90
40589;DHT22;26297;49.450;6.640;2023-07-13T05:38:57;21.70;99.90
40589;DHT22;26297;49.450;6.640;2023-07-13T05:42:01;21.70;99.90
40589;DHT22;26297;49.450;6.640;2023-07-13T05:45:05;21.70;99.90
40589;DHT22;26297;49.450;6.640;2023-07-13T05:48:08;21.70;99.90
40589;DHT22;26297;49.450;6.640;2023-07-13T05:51:11;21.60;99.90
40589;DHT22;26297;49.450;6.640;2023-07-13T05:54:14;21.70;99.90
40589;DHT22;26297;49.450;6.640;2023-07-13T05:57:17;21.60;99.90
40589;DHT22;26297;49.450;6.640;2023-07-13T06:00:20;21.60;99.90
40589;DHT22;26297;49.450;6.640;2023-07-13T06:03:24;21.70;99.90
40589;DHT22;26297;49.450;6.640;2023-07-13T06:06:29;21.60;99.90
40589;DHT22;26297;49.450;6.640;2023-07-13T06:09:32;21.60;99.90
40589;DHT22;26297;49.450;6.640;2023-07-13T06:12:41;21.70;99.90
40589;DHT22;26297;49.450;6.640;2023-07-13T06:15:55;21.60;99.90
40589;DHT22;26297;49.450;6.640;2023-07-13T06:18:58;21.60;99.90
40589;DHT22;26297;49.450;6.640;2023-07-13T06:22:01;21.70;99.90
40589;DHT22;26297;49.450;6.640;2023-07-13T06:25:05;21.70;99.90
40589;DHT22;26297;49.450;6.640;2023-07-13T06:28:08;21.70;99.90
40589;DHT22;26297;49.450;6.640;2023-07-13T06:31:13;21.70;99.90
40589;DHT22;26297;49.450;6.640;2023-07-13T06:34:16;21.70;99.90
40589;DHT22;26297;49.450;6.640;2023-07-13T06:37:19;21.70;99.90
40589;DHT22;26297;49.450;6.640;2023-07-13T06:40:22;21.70;99.90
40589;DHT22;26297;49.450;6.640;2023-07-13T06:43:26;21.70;99.90
40589;DHT22;26297;49.450;6.640;2023-07-13T06:46:34;21.70;99.90
40589;DHT22;26297;49.450;6.640;2023-07-13T06:49:45;21.70;99.90
40589;DHT22;26297;49.450;6.640;2023-07-13T06:52:49;21.70;99.90
40589;DHT22;26297;49.450;6.640;2023-07-13T06:55:52;21.70;99.90
40589;DHT22;26297;49.450;6.640;2023-07-13T06:58:56;21.70;99.90
40589;DHT22;26297;49.450;6.640;2023-07-13T07:01:59;21.70;99.90
40589;DHT22;26297;49.450;6.640;2023-07-13T07:05:15;21.70;99.90
40589;DHT22;26297;49.450;6.640;2023-07-13T07:08:21;21.70;99.90
40589;DHT22;26297;49.450;6.640;2023-07-13T07:11:25;21.70;99.90
40589;DHT22;26297;49.450;6.640;2023-07-13T07:14:49;21.70;99.90
40589;DHT22;26297;49.450;6.640;2023-07-13T07:18:16;21.70;99.90
40589;DHT22;26297;49.450;6.640;2023-07-13T07:21:39;21.80;99.90
40589;DHT22;26297;49.450;6.640;2023-07-13T07:24:48;21.70;99.90
40589;DHT22;26297;49.450;6.640;2023-07-13T07:40:49;21.70;99.90
40589;DHT22;26297;49.450;6.640;2023-07-13T07:52:28;21.70;99.90
40589;DHT22;26297;49.450;6.640;2023-07-13T07:56:11;21.70;99.90
40589;DHT22;26297;49.450;6.640;2023-07-13T07:59:19;21.80;99.90
40589;DHT22;26297;49.450;6.640;2023-07-13T08:02:48;21.80;99.90
40589;DHT22;26297;49.450;6.640;2023-07-13T08:06:03;21.70;99.90
40589;DHT22;26297;49.450;6.640;2023-07-13T08:09:09;21.70;99.90
40589;DHT22;26297;49.450;6.640;2023-07-13T08:12:21;21.70;99.90
40589;DHT22;26297;49.450;6.640;2023-07-13T08:19:49;21.70;99.90
40589;DHT22;26297;49.450;6.640;2023-07-13T08:22:53;21.70;99.90
40589;DHT22;26297;49.450;6.640;2023-07-13T08:26:14;21.70;99.90
40589;DHT22;26297;49.450;6.640;2023-07-13T08:30:32;21.70;99.90
40589;DHT22;26297;49.450;6.640;2023-07-13T08:34:12;21.70;99.90
40589;DHT22;26297;49.450;6.640;2023-07-13T08:37:28;21.70;99.90
40589;DHT22;26297;49.450;6.640;2023-07-13T08:40:36;21.80;99.90
40589;DHT22;26297;49.450;6.640;2023-07-13T08:56:17;21.70;99.90
40589;DHT22;26297;49.450;6.640;2023-07-13T08:59:31;21.70;99.90
40589;DHT22;26297;49.450;6.640;2023-07-13T09:02:56;21.70;99.90
40589;DHT22;26297;49.450;6.640;2023-07-13T09:06:14;21.70;99.90
40589;DHT22;26297;49.450;6.640;2023-07-13T09:16:48;21.70;99.90
40589;DHT22;26297;49.450;6.640;2023-07-13T09:33:38;21.80;99.90
40589;DHT22;26297;49.450;6.640;2023-07-13T09:37:04;21.80;99.90
40589;DHT22;26297;49.450;6.640;2023-07-13T09:47:39;21.80;99.90
40589;DHT22;26297;49.450;6.640;2023-07-13T09:50:48;21.90;99.90
40589;DHT22;26297;49.450;6.640;2023-07-13T09:53:54;21.80;99.90
40589;DHT22;26297;49.450;6.640;2023-07-13T09:57:02;21.80;99.90
40589;DHT22;26297;49.450;6.640;2023-07-13T10:00:22;21.80;99.90
40589;DHT22;26297;49.450;6.640;2023-07-13T10:03:35;21.80;99.90
40589;DHT22;26297;49.450;6.640;2023-07-13T10:07:06;21.80;99.90
40589;DHT22;26297;49.450;6.640;2023-07-13T10:10:20;21.80;99.90
40589;DHT22;26297;49.450;6.640;2023-07-13T10:13:36;21.80;99.90
40589;DHT22;26297;49.450;6.640;2023-07-13T10:21:21;21.80;99.90
40589;DHT22;26297;49.450;6.640;2023-07-13T10:24:55;21.80;99.90
40589;DHT22;26297;49.450;6.640;2023-07-13T10:41:41;21.80;99.90
40589;DHT22;26297;49.450;6.640;2023-07-13T10:45:00;21.90;99.90
40589;DHT22;26297;49.450;6.640;2023-07-13T10:48:34;21.90;99.90
40589;DHT22;26297;49.450;6.640;2023-07-13T10:51:44;21.90;99.90
40589;DHT22;26297;49.450;6.640;2023-07-13T10:54:58;21.90;99.90
40589;DHT22;26297;49.450;6.640;2023-07-13T11:02:57;21.90;99.90
40589;DHT22;26297;49.450;6.640;2023-07-13T11:18:39;21.90;99.90
40589;DHT22;26297;49.450;6.640;2023-07-13T11:22:40;21.90;99.90
40589;DHT22;26297;49.450;6.640;2023-07-13T11:42:13;21.90;99.90
40589;DHT22;26297;49.450;6.640;2023-07-13T11:45:31;21.90;99.90
40589;DHT22;26297;49.450;6.640;2023-07-13T11:48:34;21.90;99.90
40589;DHT22;26297;49.450;6.640;2023-07-13T11:51:40;21.90;99.90
40589;DHT22;26297;49.450;6.640;2023-07-13T11:55:13;21.90;99.90
40589;DHT22;26297;49.450;6.640;2023-07-13T13:48:34;21.90;99.90
40589;DHT22;26297;49.450;6.640;2023-07-13T13:57:14;21.90;99.90
40589;DHT22;26297;49.450;6.640;2023-07-13T14:09:39;21.90;99.90
40589;DHT22;26297;49.450;6.640;2023-07-13T14:43:20;22.00;99.90
40589;DHT22;26297;49.450;6.640;2023-07-13T14:54:52;22.10;99.90
40589;DHT22;26297;49.450;6.640;2023-07-13T15:12:15;22.20;99.90
40589;DHT22;26297;49.450;6.640;2023-07-13T15:15:58;22.20;99.90
40589;DHT22;26297;49.450;6.640;2023-07-13T15:23:44;22.20;99.90
40589;DHT22;26297;49.450;6.640;2023-07-13T15:30:52;22.20;99.90
40589;DHT22;26297;49.450;6.640;2023-07-13T15:33:57;22.20;99.90
40589;DHT22;26297;49.450;6.640;2023-07-13T15:37:01;22.20;99.90
40589;DHT22;26297;49.450;6.640;2023-07-13T15:40:05;22.20;99.90
40589;DHT22;26297;49.450;6.640;2023-07-13T15:43:11;22.20;99.90
40589;DHT22;26297;49.450;6.640;2023-07-13T15:46:15;22.20;99.90
40589;DHT22;26297;49.450;6.640;2023-07-13T15:49:19;22.30;99.90
40589;DHT22;26297;49.450;6.640;2023-07-13T15:52:24;22.20;99.90
40589;DHT22;26297;49.450;6.640;2023-07-13T15:55:37;22.20;99.90
40589;DHT22;26297;49.450;6.640;2023-07-13T15:58:41;22.30;99.90
40589;DHT22;26297;49.450;6.640;2023-07-13T16:01:45;22.30;99.90
40589;DHT22;26297;49.450;6.640;2023-07-13T16:04:51;22.20;99.90
40589;DHT22;26297;49.450;6.640;2023-07-13T16:07:55;22.30;99.90
40589;DHT22;26297;49.450;6.640;2023-07-13T16:11:00;22.20;99.90
40589;DHT22;26297;49.450;6.640;2023-07-13T16:14:04;22.20;99.90
40589;DHT22;26297;49.450;6.640;2023-07-13T16:17:12;22.30;99.90
40589;DHT22;26297;49.450;6.640;2023-07-13T16:20:16;22.30;99.90
40589;DHT22;26297;49.450;6.640;2023-07-13T16:23:24;22.20;99.90
40589;DHT22;26297;49.450;6.640;2023-07-13T16:26:35;22.30;99.90
40589;DHT22;26297;49.450;6.640;2023-07-13T16:29:49;22.20;99.90
40589;DHT22;26297;49.450;6.640;2023-07-13T16:32:56;22.20;99.90
40589;DHT22;26297;49.450;6.640;2023-07-13T16:45:15;22.20;99.90
40589;DHT22;26297;49.450;6.640;2023-07-13T17:32:57;22.10;99.90
40589;DHT22;26297;49.450;6.640;2023-07-13T17:36:11;22.10;99.90
40589;DHT22;26297;49.450;6.640;2023-07-13T17:44:00;22.10;99.90
40589;DHT22;26297;49.450;6.640;2023-07-13T17:47:39;22.10;99.90
40589;DHT22;26297;49.450;6.640;2023-07-13T17:52:03;22.10;99.90
40589;DHT22;26297;49.450;6.640;2023-07-13T18:43:38;22.10;99.90
40589;DHT22;26297;49.450;6.640;2023-07-13T18:46:51;22.00;99.90
40589;DHT22;26297;49.450;6.640;2023-07-13T18:59:07;22.00;99.90
40589;DHT22;26297;49.450;6.640;2023-07-13T19:10:14;22.00;99.90
40589;DHT22;26297;49.450;6.640;2023-07-13T19:13:23;22.00;99.90
40589;DHT22;26297;49.450;6.640;2023-07-13T19:24:22;22.00;99.90
40589;DHT22;26297;49.450;6.640;2023-07-13T19:27:27;22.00;99.90
40589;DHT22;26297;49.450;6.640;2023-07-13T19:30:30;22.00;99.90
40589;DHT22;26297;49.450;6.640;2023-07-13T19:33:33;22.00;99.90
40589;DHT22;26297;49.450;6.640;2023-07-13T19:36:37;22.00;99.90
40589;DHT22;26297;49.450;6.640;2023-07-13T19:39:41;22.00;99.90
40589;DHT22;26297;49.450;6.640;2023-07-13T19:47:12;22.00;99.90
40589;DHT22;26297;49.450;6.640;2023-07-13T19:50:19;22.00;99.90
40589;DHT22;26297;49.450;6.640;2023-07-13T19:53:24;22.00;99.90
40589;DHT22;26297;49.450;6.640;2023-07-13T19:56:33;22.00;99.90
40589;DHT22;26297;49.450;6.640;2023-07-13T19:59:44;22.00;99.90
40589;DHT22;26297;49.450;6.640;2023-07-13T20:05:43;22.00;99.90
40589;DHT22;26297;49.450;6.640;2023-07-13T20:08:50;22.00;99.90
40589;DHT22;26297;49.450;6.640;2023-07-13T20:12:07;22.00;99.90
40589;DHT22;26297;49.450;6.640;2023-07-13T20:15:35;22.00;99.90
40589;DHT22;26297;49.450;6.640;2023-07-13T20:18:52;22.00;99.90
40589;DHT22;26297;49.450;6.640;2023-07-13T20:22:24;22.00;99.90
40589;DHT22;26297;49.450;6.640;2023-07-13T20:26:05;22.00;99.90
40589;DHT22;26297;49.450;6.640;2023-07-13T20:29:37;22.00;99.90
40589;DHT22;26297;49.450;6.640;2023-07-13T20:32:49;22.00;99.90
40589;DHT22;26297;49.450;6.640;2023-07-13T20:36:29;22.00;99.90
40589;DHT22;26297;49.450;6.640;2023-07-13T20:39:38;21.90;99.90
40589;DHT22;26297;49.450;6.640;2023-07-13T20:42:44;22.00;99.90
40589;DHT22;26297;49.450;6.640;2023-07-13T20:45:58;22.00;99.90
40589;DHT22;26297;49.450;6.640;2023-07-13T20:52:17;22.00;99.90
40589;DHT22;26297;49.450;6.640;2023-07-13T20:55:25;22.00;99.90
40589;DHT22;26297;49.450;6.640;2023-07-13T20:58:44;22.00;99.90
40589;DHT22;26297;49.450;6.640;2023-07-13T21:05:41;22.00;99.90
40589;DHT22;26297;49.450;6.640;2023-07-13T21:11:44;22.00;99.90
40589;DHT22;26297;49.450;6.640;2023-07-13T21:15:27;22.00;99.90
40589;DHT22;26297;49.450;6.640;2023-07-13T21:18:33;21.90;99.90
40589;DHT22;26297;49.450;6.640;2023-07-13T21:22:00;21.90;99.90
40589;DHT22;26297;49.450;6.640;2023-07-13T21:25:52;21.90;99.90
40589;DHT22;26297;49.450;6.640;2023-07-13T22:32:28;21.80;99.90
40589;DHT22;26297;49.450;6.640;2023-07-13T22:35:58;21.80;99.90
40589;DHT22;26297;49.450;6.640;2023-07-13T22:39:15;21.80;99.90
40589;DHT22;26297;49.450;6.640;2023-07-13T22:46:27;21.70;99.90
40589;DHT22;26297;49.450;6.640;2023-07-13T22:52:23;21.70;99.90
40589;DHT22;26297;49.450;6.640;2023-07-13T22:59:29;21.70;99.90
40589;DHT22;26297;49.450;6.640;2023-07-13T23:02:41;21.70;99.90
40589;DHT22;26297;49.450;6.640;2023-07-13T23:05:47;21.70;99.90
40589;DHT22;26297;49.450;6.640;2023-07-13T23:09:07;21.70;99.90
40589;DHT22;26297;49.450;6.640;2023-07-13T23:12:24;21.70;99.90
40589;DHT22;26297;49.450;6.640;2023-07-13T23:15:47;21.70;99.90
40589;DHT22;26297;49.450;6.640;2023-07-13T23:18:55;21.60;99.90
40589;DHT22;26297;49.450;6.640;2023-07-13T23:22:23;21.70;99.90
40589;DHT22;26297;49.450;6.640;2023-07-13T23:32:00;21.70;99.90
40589;DHT22;26297;49.450;6.640;2023-07-13T23:35:23;21.70;99.90
40589;DHT22;26297;49.450;6.640;2023-07-13T23:38:34;21.70;99.90
40589;DHT22;26297;49.450;6.640;2023-07-13T23:42:04;21.60;99.90
40589;DHT22;26297;49.450;6.640;2023-07-13T23:45:51;21.60;99.90
40589;DHT22;26297;49.450;6.640;2023-07-13T23:53:26;21.60;99.90
40589;DHT22;26297;49.450;6.640;2023-07-13T23:56:44;21.60;99.90
40589;DHT22;26297;49.450;6.640;2023-07-13T23:59:55;21.60;99.90
